Latest Weather Observations for Delamere

IDD60801

Issued at 1:01 pm CST Tuesday 30 November 2021 (issued every 10 minutes, with the page automatically refreshed every 10 minutes)

About weather observations | Map of weather stations | Latest weather observations for NT | Other Formats
Station Details ID: 014949 Name: DELAMERE WEAPONS RANGE Lat: -15.74 Lon: 131.92 Height: 221.0 m
Data from the previous 72 hours. | See also: Recent months at Delamere
Date/Time
CST
Temp
°C
App
Temp
°C
Dew
Point
°C
Rel
Hum
%
Delta-T
°C
Wind Press
QNH
hPa
Press
MSL
hPa
Rain since
9am
mm
Dir  Spd
km/h
Gust
km/h
Spd
kts
Gust
kts
30/01:00pm 38.1 32.5 -0.3 9 19.5 SE 19 32 10 17 1006.7 1004.9 0.0
30/12:30pm 38.0 32.8 2.5 11 18.8 SSE 19 37 10 20 1007.1 1005.3 0.0
30/12:00pm 38.4 33.9 4.0 12 18.7 SE 17 32 9 17 1007.7 1005.9 0.0
30/11:30am 37.2 34.7 9.7 19 16.2 ENE 13 28 7 15 1008.2 1006.5 0.0
30/11:00am 36.3 33.1 9.8 20 15.5 E 17 30 9 16 1008.7 1007.0 0.0
30/10:30am 35.5 33.2 13.1 26 13.7 ENE 17 28 9 15 1009.1 1007.4 0.0
30/10:00am 35.0 33.7 12.6 26 13.6 NE 11 19 6 10 1009.6 1007.8 0.0
30/09:30am 33.6 32.4 14.1 30 12.0 ENE 13 20 7 11 1009.7 1007.9 0.0
30/09:00am 32.6 32.2 14.2 32 11.3 NE 9 13 5 7 1009.8 1008.0 0.0
30/08:30am 31.5 31.3 14.6 35 10.4 ENE 9 15 5 8 1009.6 1007.8 0.0
30/08:00am 29.3 28.2 13.1 37 9.7 ENE 11 15 6 8 1009.2 1007.5 0.0
30/07:30am 27.7 27.0 12.1 38 9.1 E 7 11 4 6 1009.1 1007.4 0.0
30/07:00am 25.9 24.8 10.5 38 8.7 ENE 7 11 4 6 1008.6 1006.9 0.0
30/06:30am 23.8 21.8 8.6 38 8.2 ENE 9 11 5 6 1008.2 1006.5 0.0
30/06:00am 22.9 20.6 7.4 37 8.2 ENE 9 11 5 6 1007.7 1005.9 0.0
30/05:30am 23.3 21.0 7.4 36 8.4 ENE 9 13 5 7 1007.6 1005.8 0.0
30/05:00am 24.1 21.8 7.3 34 8.9 E 9 11 5 6 1007.5 1005.7 0.0
30/04:30am 24.8 22.0 7.0 32 9.4 ESE 11 13 6 7 1007.4 1005.6 0.0
30/04:00am 25.6 23.2 6.8 30 9.9 ESE 9 15 5 8 1007.5 1005.7 0.0
30/03:30am 25.8 22.1 6.4 29 10.2 E 15 24 8 13 1007.5 1005.7 0.0
30/03:00am 26.9 23.7 5.2 25 11.3 SSE 11 15 6 8 1007.3 1005.5 0.0
30/02:30am 26.5 23.8 5.5 26 10.9 SE 9 13 5 7 1007.4 1005.6 0.0
30/02:00am 26.5 24.1 7.0 29 10.4 SSE 9 11 5 6 1007.6 1005.8 0.0
30/01:30am 24.9 23.6 10.0 39 8.3 SE 7 9 4 5 1007.8 1006.0 0.0
30/01:00am 25.0 25.2 10.5 40 8.1 CALM 0 0 0 0 1008.1 1006.4 0.0
30/12:30am 25.3 25.7 11.1 41 8.1 CALM 0 0 0 0 1008.4 1006.7 0.0
30/12:00am 25.4 26.1 12.3 44 7.6 CALM 0 0 0 0 1008.7 1007.0 0.0
 
Date/Time
CST
Temp
°C
App
Temp
°C
Dew
Point
°C
Rel
Hum
%
Delta-T
°C
Wind Press
QNH
hPa
Press
MSL
hPa
Rain since
9am
mm
Dir  Spd
km/h
Gust
km/h
Spd
kts
Gust
kts
29/11:30pm 25.7 25.9 10.7 39 8.5 CALM 0 0 0 0 1008.9 1007.2 0.0
29/11:00pm 26.4 25.6 9.7 35 9.3 NNE 4 7 2 4 1008.8 1007.1 0.0
29/10:30pm 27.1 25.7 9.5 33 9.8 NNE 7 11 4 6 1008.6 1006.9 0.0
29/10:00pm 27.1 25.7 9.0 32 10.0 SSW 6 7 3 4 1008.3 1006.6 0.0
29/09:30pm 28.2 27.9 8.5 29 10.9 CALM 0 0 0 0 1008.0 1006.2 0.0
29/09:00pm 29.3 29.3 9.9 30 11.0 CALM 0 0 0 0 1007.6 1005.8 0.0
29/08:30pm 31.2 29.3 7.6 23 13.1 SSE 7 9 4 5 1007.4 1005.6 0.0
29/08:00pm 31.8 29.9 6.8 21 13.7 SE 6 9 3 5 1007.2 1005.4 0.0
29/07:30pm 32.8 30.6 6.2 19 14.5 SSE 7 9 4 5 1006.6 1004.8 0.0
29/07:00pm 34.5 31.9 4.1 15 16.1 SSE 7 9 4 5 1006.4 1004.6 0.0
29/06:30pm 36.1 31.6 2.2 12 17.7 SSE 15 20 8 11 1006.1 1004.3 0.0
29/06:00pm 37.1 33.7 1.8 11 18.4 SE 9 13 5 7 1005.9 1004.1 0.0
29/05:30pm 37.3 32.9 0.6 10 18.8 S 13 19 7 10 1005.7 1003.9 0.0
29/05:00pm 37.5 33.2 0.7 10 18.8 SSE 13 20 7 11 1005.5 1003.7 0.0
29/04:30pm 37.7 33.4 0.9 10 19.0 SSE 13 24 7 13 1005.6 1003.8 0.0
29/04:00pm 38.1 34.6 1.2 10 19.1 SW 9 15 5 8 1005.7 1003.9 0.0
29/03:30pm 37.8 33.1 1.0 10 19.0 S 15 28 8 15 1005.9 1004.1 0.0
29/03:00pm 37.7 33.4 0.9 10 19.0 SW 13 22 7 12 1006.1 1004.3 0.0
29/02:30pm 38.0 34.3 2.5 11 18.8 NNE 11 28 6 15 1006.6 1004.8 0.0
29/02:00pm 37.2 32.3 1.8 11 18.4 E 17 24 9 13 1007.1 1005.3 0.0
29/01:30pm 36.8 32.0 2.8 12 18.0 ESE 17 26 9 14 1007.5 1005.7 0.0
29/01:00pm 36.2 31.0 2.3 12 17.7 SSE 19 35 10 19 1008.1 1006.4 0.0
29/12:30pm 36.9 32.9 5.0 14 17.4 ESE 15 28 8 15 1008.5 1006.8 0.0
29/12:00pm 36.4 32.0 4.6 14 17.2 SE 17 26 9 14 1009.0 1007.3 0.0
29/11:30am 36.1 31.8 7.2 17 16.3 SE 19 26 10 14 1009.5 1007.7 0.0
29/11:00am 35.0 31.7 7.9 19 15.3 ESE 15 22 8 12 1010.0 1008.2 0.0
29/10:30am 34.4 30.5 9.6 22 14.4 E 20 28 11 15 1010.3 1008.5 0.0
29/10:00am 33.4 29.1 9.4 23 13.8 ENE 22 35 12 19 1010.5 1008.7 0.0
29/09:30am 32.7 29.5 10.1 25 13.1 ENE 17 26 9 14 1010.6 1008.8 0.0
29/09:00am 31.1 30.1 14.7 37 10.1 NE 13 20 7 11 1010.6 1008.8 0.0
29/08:30am 29.9 28.8 14.4 38 9.5 NNE 13 17 7 9 1010.5 1008.7 0.0
29/08:00am 28.0 26.2 12.0 37 9.3 NE 13 17 7 9 1010.2 1008.4 0.0
29/07:30am 26.2 24.5 10.0 36 9.1 ENE 9 11 5 6 1010.0 1008.2 0.0
29/07:00am 25.3 23.8 9.2 36 8.9 E 7 9 4 5 1009.8 1008.0 0.0
29/06:30am 24.1 22.4 8.5 37 8.4 E 7 9 4 5 1009.2 1007.5 0.0
29/06:00am 23.6 21.5 8.1 37 8.3 E 9 11 5 6 1008.8 1007.1 0.0
29/05:30am 23.9 21.7 7.9 36 8.6 E 9 11 5 6 1008.5 1006.8 0.0
29/05:00am 24.0 21.8 8.0 36 8.6 ESE 9 13 5 7 1008.2 1006.5 0.0
29/04:30am 24.3 22.2 8.3 36 8.6 ESE 9 13 5 7 1008.0 1006.2 0.0
29/04:00am 25.0 22.6 8.5 35 9.0 ESE 11 15 6 8 1007.8 1006.0 0.0
29/03:30am 25.4 23.2 8.0 33 9.4 SE 9 13 5 7 1007.4 1005.6 0.0
29/03:00am 26.3 23.7 7.8 31 10.0 SE 11 15 6 8 1007.2 1005.4 0.0
29/02:30am 26.9 23.6 7.9 30 10.3 SSE 15 19 8 10 1007.3 1005.5 0.0
29/02:00am 27.0 24.1 8.0 30 10.3 SSE 13 15 7 8 1007.6 1005.8 0.0
29/01:30am 26.8 24.4 8.7 32 10.0 SSE 11 13 6 7 1007.9 1006.1 0.0
29/01:00am 28.3 25.8 8.1 28 11.1 SE 11 15 6 8 1008.3 1006.6 0.0
29/12:30am 27.7 25.5 9.5 32 10.2 SSE 11 15 6 8 1008.7 1007.0 0.0
29/12:00am 26.8 24.6 10.9 37 9.1 SSE 13 19 7 10 1009.1 1007.4 0.0
 
Date/Time
CST
Temp
°C
App
Temp
°C
Dew
Point
°C
Rel
Hum
%
Delta-T
°C
Wind Press
QNH
hPa
Press
MSL
hPa
Rain since
9am
mm
Dir  Spd
km/h
Gust
km/h
Spd
kts
Gust
kts
28/11:30pm 26.5 27.0 12.9 43 8.0 SE 2 6 1 3 1009.0 1007.3 0.0
28/11:00pm 26.5 25.5 12.2 41 8.3 NE 9 11 5 6 1009.1 1007.4 0.0
28/10:30pm 27.6 26.8 11.6 37 9.3 NNE 7 17 4 9 1009.2 1007.5 0.0
28/10:00pm 28.0 27.6 12.4 38 9.2 SE 6 9 3 5 1008.8 1007.1 0.0
28/09:30pm 28.7 28.1 11.7 35 9.9 SE 6 7 3 4 1008.8 1007.1 0.0
28/09:00pm 30.4 28.9 9.3 27 11.9 SE 7 11 4 6 1008.7 1007.0 0.0
28/08:30pm 31.1 29.3 9.3 26 12.4 SE 9 13 5 7 1008.5 1006.8 0.0
28/08:00pm 31.8 30.0 9.3 25 12.8 SE 9 11 5 6 1008.0 1006.2 0.0
28/07:30pm 32.4 30.7 9.9 25 13.0 SE 9 11 5 6 1007.7 1005.9 0.0
28/07:00pm 33.5 31.7 9.5 23 13.8 SE 9 13 5 7 1007.5 1005.7 0.0
28/06:30pm 34.7 32.1 9.2 21 14.7 SE 13 19 7 10 1007.1 1005.3 0.0
28/06:00pm 35.1 32.4 10.2 22 14.6 ESE 15 24 8 13 1006.7 1004.9 0.0
28/05:30pm 35.6 32.6 9.2 20 15.3 SE 15 26 8 14 1006.4 1004.6 0.0
28/05:00pm 36.4 33.4 9.1 19 15.8 ESE 15 32 8 17 1006.4 1004.6 0.0
28/04:30pm 36.2 33.7 9.7 20 15.5 SE 13 20 7 11 1006.3 1004.5 0.0
28/04:00pm 36.3 34.4 10.5 21 15.2 SSE 11 17 6 9 1006.5 1004.7 0.0
28/03:30pm 36.6 33.6 10.7 21 15.4 SE 17 26 9 14 1006.9 1005.1 0.0
28/03:00pm 36.1 32.8 9.6 20 15.5 SSE 17 24 9 13 1007.2 1005.4 0.0
28/02:30pm 35.7 33.3 10.0 21 15.1 SSW 13 19 7 10 1007.6 1005.8 0.0
28/02:00pm 35.6 33.7 10.6 22 14.8 ENE 11 19 6 10 1008.0 1006.2 0.0
28/01:30pm 34.9 32.1 10.0 22 14.5 ESE 15 26 8 14 1008.6 1006.9 0.0
28/01:00pm 36.0 33.3 10.2 21 15.2 SE 15 22 8 12 1008.9 1007.2 0.0
28/12:30pm 34.9 32.8 11.3 24 14.1 ENE 13 20 7 11 1009.6 1007.8 0.0
28/12:00pm 34.5 32.9 12.8 27 13.2 NE 13 26 7 14 1009.9 1008.1 0.0
28/11:30am 33.9 31.2 12.8 28 12.8 ENE 19 28 10 15 1010.4 1008.6 0.0
28/11:00am 34.7 33.0 13.5 28 13.0 ENE 15 24 8 13 1010.9 1009.1 0.0
28/10:30am 33.2 31.5 15.7 35 11.0 ENE 19 26 10 14 1011.1 1009.3 0.0
28/10:00am 32.4 31.1 15.8 36 10.4 ESE 17 24 9 13 1011.4 1009.6 0.0
28/09:30am 31.3 31.5 17.6 44 8.8 E 13 19 7 10 1011.4 1009.6 0.0
28/09:00am 30.0 30.3 17.8 48 7.8 E 13 17 7 9 1011.4 1009.6 0.0
28/08:30am 29.9 30.4 18.3 49 7.5 E 13 17 7 9 1011.2 1009.4 0.0
28/08:00am 28.2 28.1 16.1 47 7.5 E 11 13 6 7 1011.0 1009.2 0.0
28/07:30am 27.4 26.6 15.1 47 7.5 ESE 13 15 7 8 1010.8 1009.0 0.0
28/07:00am 26.4 26.1 14.5 48 7.2 ESE 9 11 5 6 1010.4 1008.6 0.0
28/06:30am 25.4 25.0 14.2 50 6.7 E 9 13 5 7 1010.1 1008.3 0.0
28/06:00am 24.0 23.8 14.7 56 5.6 ESE 9 11 5 6 1009.6 1007.8 0.0
28/05:30am 24.0 24.4 14.7 56 5.6 ESE 6 7 3 4 1009.4 1007.6 0.0
28/05:00am 24.2 24.4 14.6 55 5.8 E 7 9 4 5 1008.9 1007.2 0.0
28/04:30am 24.7 24.9 14.8 54 6.0 E 7 9 4 5 1008.7 1007.0 0.0
28/04:00am 24.7 24.9 14.8 54 6.0 ESE 7 9 4 5 1008.5 1006.8 0.0
28/03:30am 25.2 24.9 14.3 50 6.5 ENE 9 15 5 8 1008.5 1006.8 0.0
28/03:00am 26.5 25.5 13.3 44 7.8 SE 11 15 6 8 1008.3 1006.6 0.0
28/02:30am 27.0 26.0 13.4 43 8.1 SE 11 17 6 9 1008.3 1006.6 0.0
28/02:00am 26.9 26.3 13.6 44 7.9 SE 9 15 5 8 1008.4 1006.7 0.0
28/01:30am 27.1 26.2 13.8 44 8.0 SE 11 15 6 8 1008.5 1006.8 0.0
28/01:00am 27.2 27.4 14.6 46 7.6 SE 7 9 4 5 1008.8 1007.1 0.0
28/12:30am 27.6 28.1 14.9 45 7.8 ESE 6 7 3 4 1009.0 1007.3 0.0
28/12:00am 28.4 28.6 14.6 43 8.4 ESE 7 11 4 6 1009.2 1007.5 0.0
 
Date/Time
CST
Temp
°C
App
Temp
°C
Dew
Point
°C
Rel
Hum
%
Delta-T
°C
Wind Press
QNH
hPa
Press
MSL
hPa
Rain since
9am
mm
Dir  Spd
km/h
Gust
km/h
Spd
kts
Gust
kts
27/11:30pm 28.9 29.2 15.1 43 8.5 SE 7 11 4 6 1009.4 1007.6 0.0
27/11:00pm 29.2 30.1 16.7 46 7.9 SSE 7 11 4 6 1009.4 1007.6 0.0
27/10:30pm 29.8 31.2 17.3 47 8.0 ESE 6 7 3 4 1009.0 1007.3 0.0
27/10:00pm 29.1 31.2 18.2 51 7.0 E 4 7 2 4 1008.9 1007.2 0.0
27/09:30pm 29.1 32.8 20.0 58 6.0 CALM 0 0 0 0 1008.6 1006.9 0.0
27/09:00pm 29.6 33.1 19.6 55 6.6 CALM 0 0 0 0 1008.4 1006.7 0.0
27/08:30pm 30.4 33.6 18.8 50 7.6 CALM 0 0 0 0 1008.2 1006.5 0.0
27/08:00pm 31.2 34.2 18.5 46 8.3 CALM 0 0 0 0 1007.7 1005.9 0.0
27/07:30pm 31.8 33.0 16.9 40 9.5 NE 6 7 3 4 1007.5 1005.7 0.0
27/07:00pm 32.5 32.9 16.3 37 10.3 NE 9 11 5 6 1007.2 1005.4 0.0
27/06:30pm 34.2 32.7 13.1 28 12.9 SE 13 19 7 10 1006.9 1005.1 0.0
27/06:00pm 34.9 33.2 12.5 25 13.6 SE 13 20 7 11 1006.8 1005.0 0.0
27/05:30pm 35.1 33.5 13.9 28 13.1 SE 15 20 8 11 1006.6 1004.8 0.0
27/05:00pm 34.5 33.3 13.9 29 12.7 SSE 13 24 7 13 1006.4 1004.6 0.0
27/04:30pm 35.6 34.3 14.8 28 13.1 S 15 28 8 15 1006.6 1004.8 0.0
27/04:00pm 35.5 33.6 13.1 26 13.7 S 15 24 8 13 1006.7 1004.9 0.0
27/03:30pm 35.1 34.6 15.9 31 12.2 ENE 13 19 7 10 1006.9 1005.1 0.0
27/03:00pm 34.9 33.6 14.7 29 12.7 NE 15 20 8 11 1007.1 1005.3 0.0
27/02:30pm 34.0 34.8 16.4 35 11.3 SE 7 15 4 8 1007.5 1005.7 0.0
27/02:00pm 34.6 34.7 16.4 33 11.6 E 11 20 6 11 1007.9 1006.1 0.0
27/01:30pm 33.7 33.6 17.0 37 10.8 NE 13 24 7 13 1008.4 1006.7 0.0

Other formats

Comma delimited format used in spreadsheet applications
http://www.bom.gov.au/fwo/IDD60801/IDD60801.94225.axf

JavaScript Object Notation format (JSON) in row-major order
http://www.bom.gov.au/fwo/IDD60801/IDD60801.94225.json

Data quality

Most of these data are generated automatically and are frequently updated. Quality checks on data are not normally performed. It is possible for incorrect values to appear. Refer to information at About Latest Weather Observations and please check the disclaimer before using these data.